Terminal Aerodrome Forecast
Issued by NWS

Home | Current Version | Previous Version | Text Only | Print | Product List | Glossary On
Versions: 1 2 3 4 5 6 7 8 9 10 11 12 13 14 15 16 17 18 19 20 21 22
000
FTUS42 KJAX 231700
TAFVQQ
TAF
KVQQ 231729Z 2318/2418 32006KT P6SM VCSH BKN040
     FM232200 VRB06KT P6SM SCT045
     FM232300 11006KT P6SM FEW050
     FM240100 VRB03KT P6SM SCT250
     FM240800 VRB02KT 3SM BR SCT250
     FM241300 11005KT P6SM SCT045 SCT250=

USA.gov is the U.S. government's official web portal to all federal, state and local government web resources and services.